Time;durP1;ratioP1;P1;durP2;ratioP2;P2;SDS_P1;SDS_P2;PMS_P1;PMS_P2;Temp;Humidity;BMP_temperature;BMP_pressure;BME280_temperature;BME280_humidity;BME280_pressure;Samples;Min_cycle;Max_cycle;Signal;HPM_P1;HPM_P2
2022/01/16 00:01:47;;;;;;;3.05;2.95;;;;;;;0.42;97.13;99564.94;4918658;29;20028;-69
2022/01/16 00:04:13;;;;;;;1.95;1.85;;;;;;;0.35;96.71;99565.56;4915776;29;20390;-69
2022/01/16 00:06:42;;;;;;;4.20;3.47;;;;;;;0.25;96.83;99580.50;4918750;29;20020;-69
2022/01/16 00:09:08;;;;;;;5.90;3.17;;;;;;;0.24;96.75;99578.78;4918794;29;20031;-69
2022/01/16 00:11:35;;;;;;;5.22;4.22;;;;;;;0.18;97.03;99573.44;4918594;29;20055;-69
2022/01/16 00:14:02;;;;;;;5.13;3.08;;;;;;;0.29;97.43;99590.78;4918297;29;20095;-70
2022/01/16 00:16:27;;;;;;;2.30;2.15;;;;;;;0.21;97.23;99568.47;4918480;29;20438;-69
2022/01/16 00:18:53;;;;;;;7.97;2.90;;;;;;;0.11;96.21;99563.84;4918386;29;20028;-69
2022/01/16 00:21:19;;;;;;;2.17;2.08;;;;;;;-0.07;96.07;99579.31;4918508;29;20092;-69
2022/01/16 00:23:44;;;;;;;4.38;2.67;;;;;;;-0.08;96.33;99571.63;4918279;29;20036;-69
2022/01/16 00:26:10;;;;;;;3.33;3.13;;;;;;;-0.18;96.20;99567.88;4918149;29;20039;-69
2022/01/16 00:28:35;;;;;;;4.38;3.35;;;;;;;-0.22;96.22;99552.44;4918325;29;20035;-69
2022/01/16 00:31:01;;;;;;;2.38;1.75;;;;;;;-0.23;96.60;99568.53;4918440;29;20151;-69
2022/01/16 00:33:26;;;;;;;3.30;2.40;;;;;;;-0.12;96.71;99577.41;4918198;29;20110;-69
2022/01/16 00:35:52;;;;;;;1.85;1.77;;;;;;;-0.21;95.87;99551.63;4917822;29;20031;-70
2022/01/16 00:38:18;;;;;;;5.60;4.20;;;;;;;-0.23;95.92;99571.06;4918133;29;20498;-69
2022/01/16 00:40:43;;;;;;;2.80;2.63;;;;;;;-0.11;95.38;99582.56;4932570;29;20034;-69
2022/01/16 00:43:08;;;;;;;2.75;2.55;;;;;;;-0.32;95.24;99590.28;4918057;29;20032;-68
2022/01/16 00:45:34;;;;;;;1.90;1.75;;;;;;;-0.27;95.90;99593.84;4918141;29;20031;-69
2022/01/16 00:48:04;;;;;;;2.92;2.58;;;;;;;-0.27;96.39;99588.75;4917601;29;20024;-69
2022/01/16 00:50:31;;;;;;;2.05;1.67;;;;;;;-0.24;96.14;99590.56;4918103;29;20032;-69
2022/01/16 00:52:57;;;;;;;1.70;1.70;;;;;;;-0.21;95.65;99575.41;4917806;29;20084;-69
2022/01/16 00:55:22;;;;;;;3.17;2.90;;;;;;;-0.26;95.36;99593.03;4917871;29;20385;-68
2022/01/16 00:57:47;;;;;;;2.85;2.75;;;;;;;-0.36;96.21;99587.53;4917461;29;20031;-69
2022/01/16 08:00:36;;;;;;;2.33;2.20;;;;;;;-0.67;93.13;99728.00;5814515;23;20503;-73
2022/01/16 08:03:02;;;;;;;4.20;3.65;;;;;;;-1.08;93.15;99729.63;4918770;29;20039;-73
2022/01/16 08:05:28;;;;;;;2.60;2.42;;;;;;;-0.82;91.68;99738.38;4918775;29;20028;-73
2022/01/16 08:07:53;;;;;;;1.85;1.77;;;;;;;-0.84;92.05;99739.97;4918864;29;20030;-73
2022/01/16 08:10:19;;;;;;;6.43;2.65;;;;;;;-0.55;92.13;99733.56;4918713;29;20032;-73
2022/01/16 08:12:44;;;;;;;1.98;1.88;;;;;;;-0.93;91.39;99743.00;4918668;29;20064;-72
2022/01/16 08:15:10;;;;;;;4.43;2.58;;;;;;;-1.28;93.13;99746.53;4940884;23;20075;-73
2022/01/16 08:17:36;;;;;;;2.20;2.10;;;;;;;-1.27;94.56;99748.28;4918588;29;20087;-68
2022/01/16 08:20:08;;;;;;;2.30;2.17;;;;;;;-0.91;93.16;99748.16;4918660;29;20437;-68
2022/01/16 08:22:34;;;;;;;1.75;1.67;;;;;;;-0.78;92.42;99745.31;4918391;29;20102;-68
2022/01/16 08:24:59;;;;;;;2.25;2.15;;;;;;;-0.93;92.04;99740.44;4918333;29;20393;-68
2022/01/16 08:27:25;;;;;;;2.70;2.50;;;;;;;-0.88;92.08;99754.22;4918187;29;20028;-68
2022/01/16 08:29:50;;;;;;;5.57;3.95;;;;;;;-0.74;92.23;99756.50;4918317;29;20031;-68
2022/01/16 08:32:16;;;;;;;4.32;3.42;;;;;;;-0.79;91.71;99759.72;4918211;29;20023;-68
2022/01/16 08:34:42;;;;;;;2.95;2.58;;;;;;;-0.67;91.46;99768.69;4918079;29;20048;-68
2022/01/16 08:37:07;;;;;;;3.88;3.65;;;;;;;-0.72;91.31;99768.50;4917989;29;20513;-73
2022/01/16 08:39:33;;;;;;;3.60;3.30;;;;;;;-0.60;92.85;99771.56;4918130;29;20110;-73
2022/01/16 08:41:58;;;;;;;17.38;2.30;;;;;;;-0.47;90.85;99757.69;4918158;29;20540;-73
2022/01/16 08:44:23;;;;;;;1.50;1.50;;;;;;;-0.57;89.90;99771.69;4918040;29;20028;-73
2022/01/16 08:46:49;;;;;;;1.95;1.83;;;;;;;-0.36;89.48;99761.53;4917854;29;20031;-73
2022/01/16 08:49:14;;;;;;;6.95;4.05;;;;;;;-0.36;89.83;99771.72;4918160;29;20060;-73
2022/01/16 08:51:40;;;;;;;11.25;4.65;;;;;;;-0.39;89.80;99781.75;4917990;29;20511;-71
2022/01/16 08:54:05;;;;;;;3.33;3.10;;;;;;;-0.48;88.91;99773.75;4917883;29;20111;-70
2022/01/16 08:56:31;;;;;;;4.70;3.78;;;;;;;-0.59;89.48;99780.06;4916374;29;20393;-70
2022/01/16 08:58:56;;;;;;;4.55;4.13;;;;;;;-0.60;90.75;99780.88;4917931;29;20027;-70
2022/01/16 09:01:22;;;;;;;4.22;3.45;;;;;;;-0.40;89.56;99790.22;4917872;29;20028;-68
2022/01/16 09:03:47;;;;;;;4.20;3.80;;;;;;;-0.45;90.04;99781.50;4917684;29;20020;-68
2022/01/16 09:06:13;;;;;;;3.47;3.17;;;;;;;-0.42;89.72;99776.56;4917407;29;20071;-68
2022/01/16 09:08:39;;;;;;;2.10;2.00;;;;;;;-0.31;88.75;99790.59;4917695;29;20060;-68
2022/01/16 09:11:04;;;;;;;5.75;4.93;;;;;;;-0.42;89.28;99791.84;4917596;29;20055;-69
2022/01/16 09:13:30;;;;;;;4.30;3.08;;;;;;;-0.44;89.73;99795.97;4917408;29;20115;-73
2022/01/16 09:15:57;;;;;;;6.05;3.03;;;;;;;-0.63;90.06;99806.19;4847905;28;20084;-73
2022/01/16 09:18:22;;;;;;;4.00;3.67;;;;;;;-0.74;90.96;99812.47;4938680;29;20028;-73
2022/01/16 09:20:48;;;;;;;2.65;2.45;;;;;;;-0.80;91.69;99824.13;4936467;29;20219;-73
2022/01/16 09:23:13;;;;;;;2.63;2.42;;;;;;;-0.73;91.76;99820.16;4936256;29;20021;-74
2022/01/16 09:25:38;;;;;;;2.25;2.15;;;;;;;-0.70;92.20;99829.63;4936263;29;20382;-74
2022/01/16 09:28:04;;;;;;;4.18;3.88;;;;;;;-0.65;90.89;99833.25;4936137;29;20079;-74
2022/01/16 09:30:31;;;;;;;2.88;2.53;;;;;;;-0.57;91.05;99830.22;4936219;29;20043;-73
2022/01/16 09:32:58;;;;;;;6.65;2.97;;;;;;;-0.39;89.87;99827.59;4935254;28;20087;-74
2022/01/16 09:35:23;;;;;;;4.78;3.88;;;;;;;-0.46;89.60;99828.13;4935934;29;20492;-71
2022/01/16 09:37:49;;;;;;;3.40;2.92;;;;;;;-0.42;89.10;99832.56;4935808;29;20023;-71
2022/01/16 09:40:17;;;;;;;2.38;2.22;;;;;;;-0.59;90.03;99831.81;4862397;28;20037;-72
2022/01/16 09:42:43;;;;;;;2.60;2.40;;;;;;;-0.46;90.03;99834.91;4928188;29;20028;-70
2022/01/16 09:45:11;;;;;;;1.80;1.70;;;;;;;-0.52;89.63;99845.69;4916916;29;20028;-73
2022/01/16 09:47:37;;;;;;;4.65;3.75;;;;;;;-0.35;91.17;99842.19;4916825;29;20028;-73
2022/01/16 09:50:05;;;;;;;4.15;2.63;;;;;;;-0.23;89.05;99853.72;4916913;29;20055;-73
2022/01/16 09:52:38;;;;;;;7.90;3.55;;;;;;;-0.22;88.93;99855.44;4916870;29;20031;-69
2022/01/16 09:55:05;;;;;;;2.15;2.03;;;;;;;-0.21;88.84;99852.09;4916731;29;20032;-73
2022/01/16 09:57:30;;;;;;;8.07;5.18;;;;;;;-0.11;88.67;99849.13;4916624;29;20060;-68
2022/01/16 09:59:56;;;;;;;5.38;4.88;;;;;;;-0.35;88.61;99854.91;4916665;29;20115;-70
2022/01/16 10:02:21;;;;;;;8.73;4.13;;;;;;;-0.42;89.78;99852.94;4916710;29;20028;-73
2022/01/16 10:04:46;;;;;;;3.20;2.58;;;;;;;-0.34;90.00;99856.69;4916423;29;20492;-73
2022/01/16 10:07:17;;;;;;;4.65;3.47;;;;;;;-0.27;89.81;99856.13;4916494;29;20079;-71
2022/01/16 10:09:47;;;;;;;4.88;3.13;;;;;;;-0.19;89.02;99848.81;4916569;29;20398;-71
2022/01/16 10:12:17;;;;;;;2.88;2.75;;;;;;;0.18;89.04;99853.72;4915724;29;20024;-71
2022/01/16 10:14:49;;;;;;;;;;;;;;;-0.45;89.73;99857.88;4916674;29;20032;-74
2022/01/16 10:17:23;;;;;;;3.03;2.83;;;;;;;-0.13;89.59;99853.28;4916317;29;20412;-68
2022/01/16 10:20:00;;;;;;;3.38;3.17;;;;;;;-0.09;89.24;99853.50;4916306;29;20028;-69
2022/01/16 10:22:38;;;;;;;3.72;3.42;;;;;;;0.12;88.80;99863.69;4916235;29;20032;-68
2022/01/16 10:25:04;;;;;;;1.80;1.70;;;;;;;0.23;88.25;99857.34;4916164;29;20036;-73
2022/01/16 10:27:34;;;;;;;4.35;4.13;;;;;;;0.20;87.53;99847.03;4915948;29;20024;-69
2022/01/16 10:30:03;;;;;;;2.72;2.58;;;;;;;0.03;87.64;99855.66;4916103;29;20020;-73
2022/01/16 10:32:31;;;;;;;2.42;2.33;;;;;;;0.26;87.00;99836.22;4916141;29;20107;-71
2022/01/16 10:35:27;;;;;;;8.68;2.50;;;;;;;0.36;86.94;99840.00;4915891;29;20111;-73
2022/01/16 10:37:54;;;;;;;2.88;1.98;;;;;;;0.22;86.80;99842.00;4915813;29;20024;-73
2022/01/16 10:40:31;;;;;;;2.90;2.67;;;;;;;0.27;86.97;99840.50;4915900;29;20047;-73
2022/01/16 10:42:58;;;;;;;4.78;3.80;;;;;;;0.41;86.01;99846.16;4915193;29;20107;-72
2022/01/16 10:45:28;;;;;;;2.72;2.60;;;;;;;0.89;85.47;99836.09;4915526;29;20084;-71
2022/01/16 10:47:57;;;;;;;6.90;4.38;;;;;;;0.39;86.31;99847.78;4915700;29;20024;-74
2022/01/16 10:50:45;;;;;;;2.80;2.60;;;;;;;0.30;87.93;99848.28;4915806;29;20099;-72
2022/01/16 10:53:17;;;;;;;3.65;3.35;;;;;;;-0.13;90.28;99860.94;4915699;29;20393;-72
2022/01/16 10:55:49;;;;;;;3.75;3.45;;;;;;;0.48;87.82;99863.41;4915567;29;20024;-71
2022/01/16 10:58:28;;;;;;;4.95;3.47;;;;;;;0.70;85.98;99863.44;4915822;29;20028;-71
2022/01/16 11:01:03;;;;;;;3.10;2.90;;;;;;;0.57;86.63;99861.22;4915861;29;20038;-71
2022/01/16 11:03:37;;;;;;;2.10;2.00;;;;;;;0.74;87.30;99861.91;4915427;29;20024;-71
2022/01/16 11:06:03;;;;;;;3.88;3.28;;;;;;;1.09;85.80;99855.56;4915481;29;20529;-68
2022/01/16 11:08:28;;;;;;;8.15;4.25;;;;;;;0.94;85.43;99860.97;4915612;29;20106;-73
2022/01/16 11:10:56;;;;;;;6.38;4.05;;;;;;;0.83;86.41;99863.94;4915574;29;20056;-71
2022/01/16 11:13:24;;;;;;;5.13;3.55;;;;;;;0.80;86.42;99871.47;4915362;29;20087;-72
2022/01/16 11:15:54;;;;;;;3.22;2.97;;;;;;;0.76;86.46;99876.44;4915401;29;20482;-73
2022/01/16 11:18:23;;;;;;;4.07;3.78;;;;;;;0.74;86.58;99872.97;4915445;29;20118;-74
2022/01/16 11:23:33;;;;;;;7.38;6.57;;;;;;;0.74;86.15;99867.88;4915656;29;20393;-74
2022/01/16 11:26:07;;;;;;;6.00;4.88;;;;;;;0.77;86.23;99870.56;4915549;29;20485;-73
2022/01/16 11:28:33;;;;;;;6.45;3.30;;;;;;;0.80;86.51;99871.47;4915551;29;20478;-71
2022/01/16 11:31:05;;;;;;;10.23;4.32;;;;;;;0.82;85.55;99874.94;4915625;29;20024;-71
2022/01/16 11:33:33;;;;;;;4.18;3.47;;;;;;;0.90;85.81;99873.56;4915391;29;20110;-68
2022/01/16 11:36:04;;;;;;;3.55;2.58;;;;;;;0.86;86.59;99861.50;4929933;29;20500;-73
2022/01/16 11:38:32;;;;;;;10.48;6.65;;;;;;;0.96;86.92;99866.13;4915459;29;20474;-74
2022/01/16 11:41:12;;;;;;;4.57;3.58;;;;;;;0.88;86.40;99875.19;4915473;29;20095;-74
2022/01/16 11:43:38;;;;;;;5.85;5.38;;;;;;;0.81;86.62;99874.06;4915203;29;20028;-73
2022/01/16 11:46:07;;;;;;;4.88;2.50;;;;;;;0.94;86.73;99870.31;4915208;29;20039;-70
2022/01/16 11:48:39;;;;;;;4.38;4.00;;;;;;;1.17;85.85;99871.19;4915470;29;20118;-68
2022/01/16 11:51:24;;;;;;;7.18;6.47;;;;;;;1.17;86.13;99869.50;4915548;29;20385;-70
2022/01/16 11:53:58;;;;;;;4.05;3.75;;;;;;;1.11;86.99;99870.94;4915355;29;20063;-71
2022/01/16 11:59:21;;;;;;;14.70;5.75;;;;;;;1.01;86.21;99872.28;4918971;29;20059;-69
2022/01/16 12:01:59;;;;;;;4.68;4.30;;;;;;;1.01;86.75;99862.94;4918787;29;20437;-69
2022/01/16 12:04:30;;;;;;;7.00;5.40;;;;;;;1.24;86.25;99868.91;4918426;29;20447;-73
2022/01/16 12:06:56;;;;;;;5.70;3.55;;;;;;;1.25;86.51;99862.97;4918683;29;20123;-73
2022/01/16 12:12:13;;;;;;;7.60;3.58;;;;;;;1.68;89.46;99863.63;4918627;29;20031;-72
2022/01/16 12:14:55;;;;;;;2.80;2.60;;;;;;;1.63;89.78;99860.06;4918348;29;20040;-73
2022/01/16 12:17:46;;;;;;;3.38;3.17;;;;;;;1.71;89.72;99862.06;4918370;29;20035;-73
2022/01/16 12:20:12;;;;;;;4.95;3.53;;;;;;;1.72;88.93;99856.13;4918618;29;20170;-73
2022/01/16 12:23:03;;;;;;;13.93;4.57;;;;;;;1.82;89.04;99862.44;4918404;29;20104;-71
2022/01/16 12:25:44;;;;;;;8.48;4.90;;;;;;;1.86;89.07;99863.41;4918537;29;20043;-71
2022/01/16 12:28:10;;;;;;;5.95;3.88;;;;;;;1.98;87.65;99853.59;4918446;29;20024;-73
2022/01/16 12:30:50;;;;;;;4.90;4.50;;;;;;;1.99;87.47;99863.03;4918298;29;20038;-71
2022/01/16 12:33:16;;;;;;;7.35;4.43;;;;;;;2.15;88.15;99856.72;4917995;29;20060;-71
2022/01/16 12:35:41;;;;;;;6.30;4.38;;;;;;;2.12;86.84;99857.47;4917974;29;20028;-71
2022/01/16 12:38:15;;;;;;;5.63;4.03;;;;;;;2.11;86.48;99860.84;4918317;29;20036;-68
2022/01/16 12:40:46;;;;;;;5.18;4.68;;;;;;;2.10;86.46;99866.78;4918123;29;20024;-73
2022/01/16 12:43:26;;;;;;;4.63;3.05;;;;;;;2.31;86.29;99864.94;4917371;29;20060;-73
2022/01/16 12:45:51;;;;;;;3.72;3.05;;;;;;;2.39;86.34;99856.66;4917990;29;20031;-72
2022/01/16 12:48:17;;;;;;;4.88;3.67;;;;;;;2.43;84.62;99863.59;4917554;29;20534;-68
2022/01/16 12:50:42;;;;;;;2.47;2.33;;;;;;;2.42;84.92;99856.72;4917753;29;20027;-73
2022/01/16 12:53:07;;;;;;;9.30;3.78;;;;;;;2.40;84.39;99863.50;4917869;29;20111;-73
2022/01/16 12:55:34;;;;;;;4.53;3.65;;;;;;;2.56;83.77;99852.91;4917814;29;20039;-73
2022/01/16 12:58:18;;;;;;;4.68;3.95;;;;;;;2.58;83.07;99853.84;4917635;29;20031;-73
2022/01/16 13:01:00;;;;;;;2.42;2.25;;;;;;;2.68;82.88;99855.00;4917709;29;20032;-68
2022/01/16 13:03:27;;;;;;;2.95;2.75;;;;;;;2.72;82.44;99852.59;4917569;29;20087;-73
2022/01/16 13:06:19;;;;;;;4.00;3.70;;;;;;;2.64;82.52;99856.59;4917462;29;20056;-69
2022/01/16 13:09:08;;;;;;;4.18;2.38;;;;;;;2.87;82.45;99861.56;4916692;29;20075;-68
2022/01/16 13:11:39;;;;;;;2.45;1.67;;;;;;;2.89;81.92;99865.03;4917614;29;20486;-73
2022/01/16 13:14:08;;;;;;;3.42;3.17;;;;;;;2.81;81.63;99868.22;4917410;29;20036;-72
2022/01/16 13:16:39;;;;;;;4.07;2.93;;;;;;;2.70;81.92;99869.56;4917233;29;20032;-73
2022/01/16 13:19:25;;;;;;;2.47;2.38;;;;;;;2.79;81.80;99859.63;4917439;29;20288;-71
2022/01/16 13:22:11;;;;;;;3.72;2.60;;;;;;;2.76;82.11;99862.09;4910912;29;20028;-73
2022/01/16 13:24:44;;;;;;;3.00;2.78;;;;;;;2.78;81.59;99863.00;4917199;29;20482;-68
2022/01/16 13:27:19;;;;;;;2.08;1.80;;;;;;;2.83;81.45;99866.56;4916507;29;20031;-68
2022/01/16 13:30:17;;;;;;;4.40;3.75;;;;;;;2.93;81.54;99867.72;4917166;29;20082;-71
2022/01/16 13:32:44;;;;;;;4.90;3.75;;;;;;;2.89;81.40;99870.13;4917076;29;20415;-73
2022/01/16 13:35:21;;;;;;;2.22;2.08;;;;;;;2.82;81.19;99871.66;4916988;29;20028;-73
2022/01/16 13:37:47;;;;;;;3.47;3.05;;;;;;;2.73;81.36;99872.22;4916888;29;20095;-74
2022/01/16 13:40:15;;;;;;;2.67;1.98;;;;;;;2.67;81.46;99877.16;4917057;29;20079;-67
2022/01/16 13:45:38;;;;;;;2.85;2.50;;;;;;;2.83;81.60;99876.81;4917135;29;20119;-67
2022/01/16 13:48:11;;;;;;;1.98;1.88;;;;;;;2.91;80.78;99878.75;4916180;29;20453;-67
2022/01/16 13:50:47;;;;;;;3.85;3.55;;;;;;;3.05;80.74;99867.25;4916992;29;20028;-67
2022/01/16 13:53:16;;;;;;;2.35;2.25;;;;;;;2.95;80.94;99875.44;4916788;29;20027;-67
2022/01/16 13:55:50;;;;;;;6.97;5.07;;;;;;;3.02;80.24;99878.25;4916737;29;20035;-69
2022/01/16 13:58:18;;;;;;;3.85;3.40;;;;;;;2.90;80.53;99877.00;4916526;29;20036;-66
2022/01/16 14:00:44;;;;;;;1.92;1.80;;;;;;;2.92;80.47;99880.47;4916642;29;20028;-67
2022/01/16 14:03:19;;;;;;;2.85;2.65;;;;;;;2.95;80.32;99886.56;4916715;29;20034;-67
2022/01/16 14:05:56;;;;;;;4.00;2.63;;;;;;;2.98;80.80;99902.00;4910027;29;20111;-67
2022/01/16 14:08:23;;;;;;;5.05;3.10;;;;;;;3.04;80.28;99897.06;4916581;29;20035;-69
2022/01/16 14:10:49;;;;;;;3.08;2.88;;;;;;;2.93;79.90;99892.44;4916650;29;20504;-67
2022/01/16 14:13:15;;;;;;;1.92;1.75;;;;;;;2.95;80.19;99885.66;4916297;29;20028;-67
2022/01/16 14:15:40;;;;;;;2.45;2.35;;;;;;;3.12;80.08;99892.19;4969641;23;20106;-70
2022/01/16 14:18:14;;;;;;;4.18;3.60;;;;;;;3.12;79.90;99894.75;4916192;29;20036;-70
2022/01/16 14:20:50;;;;;;;3.25;3.00;;;;;;;3.13;79.77;99896.47;4916524;29;20370;-70
2022/01/16 14:23:16;;;;;;;3.05;2.63;;;;;;;3.09;80.07;99907.44;4916497;29;20028;-70
2022/01/16 14:25:42;;;;;;;1.95;1.35;;;;;;;3.14;79.37;99911.00;4916072;29;20039;-70
2022/01/16 14:28:07;;;;;;;2.35;2.20;;;;;;;2.94;79.71;99912.09;4916239;29;20024;-70
2022/01/16 14:30:33;;;;;;;1.40;1.40;;;;;;;3.03;79.78;99914.94;4905287;29;20119;-70
2022/01/16 14:32:58;;;;;;;8.88;3.67;;;;;;;2.98;79.48;99921.63;4907956;29;20028;-70
2022/01/16 14:35:24;;;;;;;2.95;2.67;;;;;;;2.95;80.36;99931.75;4906350;29;20036;-70
2022/01/16 14:37:49;;;;;;;2.83;2.65;;;;;;;2.97;80.34;99930.13;4897042;29;20064;-70
2022/01/16 14:40:15;;;;;;;2.25;2.15;;;;;;;2.93;79.93;99928.28;4897155;29;20039;-70
2022/01/16 14:42:42;;;;;;;3.75;3.25;;;;;;;2.87;80.18;99938.34;4897296;29;20037;-67
2022/01/16 14:45:09;;;;;;;4.78;1.50;;;;;;;2.96;80.21;99944.63;4897067;29;20040;-66
2022/01/16 14:47:36;;;;;;;2.85;2.50;;;;;;;3.06;79.96;99938.97;4911647;29;20036;-66
2022/01/16 14:50:01;;;;;;;1.98;1.88;;;;;;;3.05;79.63;99933.81;4897129;29;20052;-67
2022/01/16 14:52:27;;;;;;;3.72;3.40;;;;;;;2.95;80.27;99947.09;4897071;29;20060;-67
2022/01/16 14:54:52;;;;;;;3.55;3.03;;;;;;;2.97;80.02;99935.25;4911467;29;20032;-67
2022/01/16 14:57:19;;;;;;;3.10;2.90;;;;;;;3.05;79.43;99931.25;4902153;29;20024;-67
2022/01/16 14:59:45;;;;;;;2.90;2.15;;;;;;;3.05;79.28;99938.91;4911278;29;20035;-67
2022/01/16 15:02:10;;;;;;;2.28;2.05;;;;;;;3.03;79.51;99932.88;4901261;29;20024;-66
2022/01/16 15:04:36;;;;;;;1.05;1.05;;;;;;;3.21;79.67;99930.88;4912286;29;20025;-67
2022/01/16 15:07:01;;;;;;;3.08;2.83;;;;;;;3.12;79.34;99939.97;4896766;29;20029;-67
2022/01/16 15:09:26;;;;;;;3.00;2.70;;;;;;;3.10;80.01;99937.38;4896948;29;20029;-67
2022/01/16 15:11:52;;;;;;;3.38;2.97;;;;;;;3.09;80.60;99940.72;4896879;29;20624;-67
2022/01/16 15:14:17;;;;;;;6.40;2.78;;;;;;;3.05;81.44;99933.81;4896747;29;20406;-67
2022/01/16 15:16:43;;;;;;;2.70;2.53;;;;;;;2.97;81.68;99931.00;4896678;29;20389;-67
2022/01/16 15:19:16;;;;;;;4.07;2.33;;;;;;;2.99;81.04;99925.91;4896902;29;20052;-67
2022/01/16 15:22:25;;;;;;;2.25;2.05;;;;;;;2.97;81.65;99930.13;4896808;29;20099;-70
2022/01/16 15:24:31;;;;;;;;;;;;;;;2.92;81.07;99931.69;4899208;29;20065;-70
2022/01/16 15:26:56;;;;;;;3.78;3.30;;;;;;;2.70;81.98;99930.97;4899089;29;20011;-70
2022/01/16 15:29:22;;;;;;;4.35;3.42;;;;;;;2.62;82.14;99942.69;4913873;29;20085;-70
2022/01/16 15:31:47;;;;;;;2.83;2.63;;;;;;;2.68;82.81;99936.88;4900663;29;20024;-70
2022/01/16 15:34:12;;;;;;;2.25;2.13;;;;;;;2.64;82.49;99933.34;4918711;29;20103;-70
2022/01/16 15:36:38;;;;;;;4.72;2.58;;;;;;;2.55;83.49;99940.72;4900204;29;20029;-69
2022/01/16 15:39:04;;;;;;;3.53;3.30;;;;;;;2.51;83.17;99938.88;4900385;29;20024;-69
2022/01/16 15:41:29;;;;;;;4.88;3.22;;;;;;;2.59;82.77;99942.56;4914023;29;20554;-71
2022/01/16 15:43:56;;;;;;;8.32;4.15;;;;;;;2.50;83.02;99952.50;4918968;29;20031;-69
2022/01/16 15:46:23;;;;;;;4.15;2.70;;;;;;;2.58;82.56;99945.94;4918348;29;20070;-74
2022/01/16 15:48:49;;;;;;;3.10;2.88;;;;;;;2.63;82.64;99946.97;4918906;29;20075;-67
2022/01/16 15:51:14;;;;;;;5.47;4.95;;;;;;;2.60;83.04;99954.53;4919188;29;20024;-71
2022/01/16 15:53:39;;;;;;;3.28;2.97;;;;;;;2.55;82.48;99954.38;4918188;29;20390;-69
2022/01/16 15:56:05;;;;;;;2.10;1.92;;;;;;;2.55;81.64;99971.41;4918793;29;20036;-69
2022/01/16 15:58:31;;;;;;;2.85;2.60;;;;;;;2.47;81.98;99993.34;4918129;29;20035;-68
2022/01/16 16:00:56;;;;;;;3.42;2.38;;;;;;;2.61;80.70;99992.13;4918816;29;20024;-70
2022/01/16 16:03:21;;;;;;;1.63;1.52;;;;;;;2.52;80.46;99999.47;4918265;29;20497;-68
2022/01/16 16:05:47;;;;;;;5.93;2.63;;;;;;;2.72;79.75;100001.00;4918122;29;20063;-69
2022/01/16 16:08:12;;;;;;;1.85;1.80;;;;;;;2.86;78.22;100003.16;4918681;29;20024;-71
2022/01/16 16:10:37;;;;;;;1.85;1.75;;;;;;;2.88;79.77;99986.16;4917979;29;20103;-67
2022/01/16 16:13:04;;;;;;;5.20;4.22;;;;;;;2.84;80.93;99991.16;4918544;29;20051;-80
2022/01/16 16:15:31;;;;;;;2.08;1.85;;;;;;;2.92;79.45;99982.88;4917533;29;20035;-71
2022/01/16 16:17:56;;;;;;;4.93;2.58;;;;;;;2.92;79.08;99998.22;4918102;29;20029;-71
2022/01/16 16:20:24;;;;;;;1.67;1.48;;;;;;;2.80;79.42;100006.34;4933091;29;20104;-71
2022/01/16 16:22:55;;;;;;;2.28;2.05;;;;;;;2.76;79.83;100010.53;4918582;29;20028;-69
2022/01/16 16:25:21;;;;;;;5.90;3.47;;;;;;;2.77;80.34;100011.41;4918429;29;20028;-70
2022/01/16 16:27:48;;;;;;;5.25;3.20;;;;;;;2.75;80.18;100010.44;4918269;29;20350;-72
2022/01/16 16:30:14;;;;;;;5.68;3.50;;;;;;;2.74;80.27;100019.81;4918194;29;20048;-72
2022/01/16 16:32:40;;;;;;;15.77;2.40;;;;;;;2.64;80.54;100028.00;4918213;29;20039;-67
2022/01/16 16:35:06;;;;;;;3.75;2.88;;;;;;;2.58;81.29;100030.38;4911327;29;20024;-72
2022/01/16 16:37:32;;;;;;;7.28;2.88;;;;;;;2.61;81.36;100025.38;4899145;29;20044;-71
2022/01/16 16:39:57;;;;;;;5.07;3.30;;;;;;;2.56;81.95;100034.53;4899424;29;20028;-69
2022/01/16 16:42:22;;;;;;;3.05;2.15;;;;;;;2.57;80.80;100020.97;4899176;29;20024;-69
2022/01/16 16:44:51;;;;;;;3.05;2.70;;;;;;;2.60;80.81;100041.50;4899174;29;20039;-72
2022/01/16 16:47:17;;;;;;;2.58;2.15;;;;;;;2.52;81.29;100037.84;4916791;29;20397;-69
2022/01/16 16:49:44;;;;;;;5.72;5.25;;;;;;;2.43;82.39;100047.75;4899191;29;20032;-67
2022/01/16 16:52:11;;;;;;;5.88;4.75;;;;;;;2.42;83.18;100046.00;4899076;29;20498;-68
2022/01/16 16:54:39;;;;;;;4.97;3.75;;;;;;;2.40;83.82;100047.63;4898967;29;20029;-68
2022/01/16 16:57:07;;;;;;;6.00;4.07;;;;;;;2.36;84.17;100050.91;4898687;29;20040;-68
2022/01/16 16:59:32;;;;;;;5.88;4.57;;;;;;;2.43;84.68;100040.09;4899082;29;20040;-68
2022/01/16 17:01:58;;;;;;;6.47;5.30;;;;;;;2.40;83.60;100047.63;4901614;29;20102;-68
2022/01/16 17:04:23;;;;;;;5.10;3.72;;;;;;;2.44;83.50;100036.69;4916405;29;20641;-68
2022/01/16 17:06:49;;;;;;;7.55;4.57;;;;;;;2.58;82.64;100043.16;4898798;29;20025;-68
2022/01/16 17:09:14;;;;;;;7.57;3.53;;;;;;;2.56;82.87;100042.22;4898830;29;20060;-69
2022/01/16 17:11:39;;;;;;;10.10;7.82;;;;;;;2.53;82.21;100043.00;4898704;29;20253;-70
2022/01/16 17:14:05;;;;;;;6.90;3.78;;;;;;;2.49;83.00;100047.97;4898609;29;20037;-69
2022/01/16 17:16:30;;;;;;;9.65;2.70;;;;;;;2.35;83.12;100046.59;4910829;29;20039;-68
2022/01/16 17:19:03;;;;;;;2.63;2.10;;;;;;;2.44;83.27;100041.81;4903952;29;20100;-68
2022/01/16 17:21:29;;;;;;;3.17;2.92;;;;;;;2.38;83.47;100044.16;4924330;29;20044;-73
2022/01/16 17:23:54;;;;;;;3.08;1.80;;;;;;;2.42;84.13;100062.22;4917317;29;20038;-67
2022/01/16 17:26:19;;;;;;;3.42;3.13;;;;;;;2.29;84.37;100070.28;4916344;29;20055;-68
2022/01/16 17:28:45;;;;;;;5.07;4.05;;;;;;;2.34;84.54;100067.88;4917180;29;20039;-76
2022/01/16 17:31:10;;;;;;;1.55;1.45;;;;;;;2.23;85.08;100081.16;4917284;29;20043;-74
2022/01/16 17:33:36;;;;;;;3.45;2.42;;;;;;;2.28;85.06;100078.78;4917040;29;20024;-78
2022/01/16 17:36:01;;;;;;;3.33;2.50;;;;;;;2.46;84.09;100078.53;4903053;29;20029;-78
2022/01/16 17:38:26;;;;;;;4.28;1.75;;;;;;;2.58;83.62;100084.09;4916486;29;20032;-78
2022/01/16 17:40:52;;;;;;;3.53;3.00;;;;;;;2.56;82.75;100083.16;4917095;29;20086;-78
2022/01/16 17:43:17;;;;;;;3.33;2.90;;;;;;;2.58;82.97;100091.78;4916188;29;20492;-77
2022/01/16 17:45:43;;;;;;;4.95;2.50;;;;;;;2.53;83.67;100090.75;4916674;29;20537;-77
2022/01/16 17:48:09;;;;;;;5.32;3.55;;;;;;;2.51;84.80;100102.59;4916816;29;20046;-77
2022/01/16 17:50:35;;;;;;;2.45;2.10;;;;;;;2.09;85.71;100113.00;4916101;29;20032;-77
2022/01/16 17:53:00;;;;;;;2.42;2.28;;;;;;;1.99;86.88;100116.03;4916372;29;20481;-77
2022/01/16 17:55:26;;;;;;;3.83;2.60;;;;;;;1.88;87.53;100112.19;4916552;29;20050;-76
2022/01/16 17:57:51;;;;;;;4.50;3.00;;;;;;;1.70;89.08;100113.25;4915977;29;20028;-73
2022/01/16 18:00:19;;;;;;;3.13;2.85;;;;;;;1.69;89.50;100124.28;4916520;29;20039;-72
2022/01/16 18:02:45;;;;;;;4.38;2.72;;;;;;;1.70;89.90;100123.47;4916670;29;20106;-72
2022/01/16 18:05:11;;;;;;;3.75;2.88;;;;;;;1.80;90.15;100125.56;4909176;29;20161;-72
2022/01/16 18:07:38;;;;;;;5.70;3.20;;;;;;;1.96;90.72;100119.34;4897635;29;20020;-72
2022/01/16 18:10:05;;;;;;;4.90;4.32;;;;;;;1.90;89.78;100124.22;4911736;29;20401;-72
2022/01/16 18:12:31;;;;;;;3.85;3.55;;;;;;;1.96;89.85;100126.13;4916356;29;20036;-73
2022/01/16 18:14:56;;;;;;;3.15;2.75;;;;;;;1.95;90.78;100130.38;4916253;29;20035;-73
2022/01/16 18:17:22;;;;;;;6.40;2.60;;;;;;;2.03;90.00;100133.22;4916244;29;20037;-72
2022/01/16 18:19:47;;;;;;;4.35;3.97;;;;;;;2.05;89.50;100126.50;4916333;29;20028;-73
2022/01/16 18:22:12;;;;;;;2.15;2.03;;;;;;;2.12;90.47;100132.69;4916399;29;20043;-73
2022/01/16 18:24:38;;;;;;;2.25;2.05;;;;;;;2.20;89.26;100137.28;4916235;29;20039;-73
2022/01/16 18:27:05;;;;;;;3.55;2.63;;;;;;;2.25;89.46;100134.91;4916335;29;20031;-73
2022/01/16 18:29:30;;;;;;;2.90;2.70;;;;;;;2.29;89.30;100137.63;4916131;29;20042;-73
2022/01/16 18:31:55;;;;;;;5.18;4.22;;;;;;;2.24;88.56;100134.03;4916179;29;20036;-72
2022/01/16 18:34:21;;;;;;;6.75;5.13;;;;;;;2.16;88.73;100125.19;4915297;29;20020;-72
2022/01/16 18:36:48;;;;;;;2.67;2.47;;;;;;;2.18;88.74;100133.81;4897028;29;20526;-72
2022/01/16 18:39:14;;;;;;;5.00;4.40;;;;;;;2.21;88.83;100139.03;4904880;29;20049;-70
2022/01/16 18:41:40;;;;;;;5.75;4.47;;;;;;;2.15;89.35;100135.38;4904880;29;20120;-71
2022/01/16 18:44:05;;;;;;;3.70;3.20;;;;;;;2.09;90.20;100133.47;4897062;29;20421;-71
2022/01/16 18:46:32;;;;;;;3.55;3.28;;;;;;;2.10;90.02;100129.22;4896890;29;20093;-71
2022/01/16 18:48:57;;;;;;;4.57;4.20;;;;;;;2.06;89.69;100134.22;4897234;29;20032;-71
2022/01/16 18:51:25;;;;;;;5.20;4.22;;;;;;;2.06;89.27;100125.66;4897125;29;20479;-71
2022/01/16 18:53:51;;;;;;;6.05;3.25;;;;;;;2.05;89.18;100137.59;4897024;29;20074;-68
2022/01/16 18:56:18;;;;;;;4.63;3.88;;;;;;;2.05;89.66;100139.28;4896877;29;20034;-71